createdAt,value
2019-01-30T14:26:22.672Z,18.79
2019-01-30T14:27:22.634Z,19.00
2019-01-30T14:28:22.628Z,19.79
2019-01-30T14:29:22.652Z,20.20
2019-01-30T14:30:22.631Z,18.60
2019-01-30T14:31:22.593Z,19.10
2019-01-30T14:32:22.587Z,17.50
2019-01-30T14:33:22.572Z,18.39
2019-01-30T14:34:22.600Z,17.20
2019-01-30T14:35:22.584Z,16.39
2019-01-30T14:36:22.572Z,16.89
2019-01-30T14:37:22.549Z,17.39
2019-01-30T14:38:22.522Z,18.39
2019-01-30T14:39:22.529Z,18.60
2019-01-30T14:40:22.494Z,17.89
2019-01-30T14:41:22.522Z,19.39
2019-01-30T14:42:22.473Z,20.20
2019-01-30T14:43:22.471Z,19.20
2019-01-30T14:44:22.453Z,20.00
2019-01-30T14:45:22.442Z,18.20
2019-01-30T14:46:22.432Z,17.89
2019-01-30T14:47:22.456Z,19.20
2019-01-30T14:48:22.441Z,18.60
2019-01-30T14:49:22.436Z,17.60
2019-01-30T14:50:22.401Z,17.39
2019-01-30T14:51:22.378Z,18.89
2019-01-30T14:52:22.370Z,18.39
2019-01-30T14:53:22.357Z,18.20
2019-01-30T14:54:22.362Z,18.10
2019-01-30T14:55:22.335Z,18.79
2019-01-30T14:56:22.323Z,20.00
2019-01-30T14:57:22.351Z,20.70
2019-01-30T14:58:24.815Z,21.00
2019-01-30T14:59:22.292Z,20.60
2019-01-30T15:00:22.284Z,21.00
2019-01-30T15:01:22.276Z,22.10
2019-01-30T15:02:22.280Z,21.60
2019-01-30T15:03:22.315Z,22.79
2019-01-30T15:04:22.243Z,22.60
2019-01-30T15:05:22.940Z,23.89
2019-01-30T15:06:22.254Z,23.39
2019-01-30T15:07:28.841Z,21.20
2019-01-30T15:08:43.269Z,20.29
2019-01-30T15:09:43.321Z,21.20
2019-01-30T15:10:43.218Z,23.60
2019-01-30T15:11:43.209Z,24.50
2019-01-30T15:12:43.198Z,23.89
2019-01-30T15:13:43.219Z,22.10
2019-01-30T15:14:43.176Z,22.39
2019-01-30T15:15:44.295Z,20.50
2019-01-30T15:16:43.152Z,21.70
2019-01-30T15:17:43.167Z,22.20
2019-01-30T15:18:43.136Z,20.79
2019-01-30T15:19:43.126Z,21.00
2019-01-30T15:20:43.125Z,21.20
2019-01-30T15:21:43.100Z,19.10
2019-01-30T15:22:43.088Z,21.50
2019-01-30T15:23:43.076Z,25.00
2019-01-30T15:24:43.067Z,20.60
2019-01-30T15:25:43.056Z,41.90
2019-01-30T15:26:43.045Z,23.10
2019-01-30T15:27:43.033Z,20.29
2019-01-30T15:28:43.023Z,18.39
2019-01-30T15:29:43.010Z,17.89
2019-01-30T15:30:43.001Z,17.39
2019-01-30T15:31:42.989Z,17.70
2019-01-30T15:32:42.978Z,18.20
2019-01-30T15:33:42.969Z,16.60
2019-01-30T15:34:42.958Z,16.89
2019-01-30T15:35:42.947Z,17.70
2019-01-30T15:36:42.935Z,17.10
2019-01-30T15:37:42.923Z,17.39
2019-01-30T15:38:42.911Z,18.70
2019-01-30T15:39:42.900Z,17.50
2019-01-30T15:40:42.889Z,17.70
2019-01-30T15:41:42.882Z,17.79
2019-01-30T15:42:49.128Z,18.39
2019-01-30T15:44:03.907Z,14.80
2019-01-30T15:45:09.792Z,15.80
2019-01-30T15:46:25.069Z,15.80
2019-01-30T15:47:24.922Z,17.79
2019-01-30T15:48:24.915Z,19.10
2019-01-30T15:49:24.902Z,20.20
2019-01-30T15:50:24.891Z,19.20
2019-01-30T15:51:24.882Z,19.89
2019-01-30T15:52:24.872Z,19.00
2019-01-30T15:53:24.861Z,19.70
2019-01-30T15:54:24.851Z,19.10
2019-01-30T15:55:24.839Z,17.89
2019-01-30T15:56:24.828Z,20.50
2019-01-30T15:57:24.816Z,20.39
2019-01-30T15:58:24.891Z,20.60
2019-01-30T15:59:24.796Z,21.10
2019-01-30T16:00:24.784Z,20.29
2019-01-30T16:01:24.774Z,21.60
2019-01-30T16:02:24.763Z,21.79
2019-01-30T16:03:24.754Z,20.29
2019-01-30T16:04:24.743Z,21.29
2019-01-30T16:05:24.731Z,20.79
2019-01-30T16:06:24.722Z,20.70
2019-01-30T16:07:24.708Z,20.79
2019-01-30T16:08:24.698Z,20.60
2019-01-30T16:09:24.694Z,19.50
2019-01-30T16:10:24.679Z,20.00
2019-01-30T16:11:24.668Z,21.29
2019-01-30T16:12:24.657Z,22.20
2019-01-30T16:13:24.650Z,22.20
2019-01-30T16:14:24.634Z,22.79
2019-01-30T16:15:24.626Z,21.89
2019-01-30T16:16:24.612Z,24.00
2019-01-30T16:17:24.602Z,22.50
2019-01-30T16:18:24.593Z,22.29
2019-01-30T16:19:24.582Z,22.29
2019-01-30T16:20:24.571Z,23.50
2019-01-30T16:21:24.559Z,23.70
2019-01-30T16:22:24.547Z,23.79
2019-01-30T16:23:24.538Z,20.79
2019-01-30T16:24:24.527Z,19.50
2019-01-30T16:25:24.517Z,21.00
2019-01-30T16:26:24.506Z,22.89
2019-01-30T16:27:24.497Z,21.50
2019-01-30T16:28:24.487Z,20.39
2019-01-30T16:29:24.475Z,20.70
2019-01-30T16:30:24.465Z,22.10
2019-01-30T16:31:24.455Z,23.00
2019-01-30T16:32:24.441Z,23.10
2019-01-30T16:33:24.433Z,24.39
2019-01-30T16:34:24.420Z,24.39
2019-01-30T16:35:24.410Z,24.29
2019-01-30T16:36:25.193Z,24.29
2019-01-30T16:37:24.391Z,26.29
2019-01-30T16:38:24.378Z,24.50
2019-01-30T16:39:24.369Z,25.10
2019-01-30T16:40:24.366Z,25.20
2019-01-30T16:41:24.346Z,25.20
2019-01-30T16:42:24.337Z,27.00
2019-01-30T16:43:24.326Z,28.39
2019-01-30T16:44:24.313Z,28.60
2019-01-30T16:45:24.304Z,29.50
2019-01-30T16:46:24.295Z,28.29
2019-01-30T16:47:24.282Z,27.39
2019-01-30T16:48:24.271Z,28.89
2019-01-30T16:49:24.269Z,29.70
2019-01-30T16:50:24.253Z,29.10
2019-01-30T16:51:24.240Z,27.50
2019-01-30T16:52:24.228Z,29.00
2019-01-30T16:53:24.218Z,29.20
2019-01-30T16:54:24.208Z,28.70
2019-01-30T16:55:24.198Z,29.70
2019-01-30T16:56:24.192Z,29.79
2019-01-30T16:57:24.177Z,29.89
2019-01-30T16:58:24.166Z,31.10
2019-01-30T16:59:24.154Z,30.60
2019-01-30T17:00:24.145Z,31.29
2019-01-30T17:01:24.134Z,32.59
2019-01-30T17:02:24.124Z,32.09
2019-01-30T17:03:24.112Z,31.50
2019-01-30T17:04:24.103Z,31.29
2019-01-30T17:05:24.176Z,31.60
2019-01-30T17:06:24.080Z,31.39
2019-01-30T17:07:24.072Z,31.29
2019-01-30T17:08:24.057Z,32.90
2019-01-30T17:09:24.049Z,34.70
2019-01-30T17:10:24.138Z,35.50
2019-01-30T17:11:24.026Z,33.90
2019-01-30T17:12:24.015Z,34.40
2019-01-30T17:13:24.040Z,36.79
2019-01-30T17:14:23.996Z,37.00
2019-01-30T17:15:23.984Z,36.00
2019-01-30T17:16:23.973Z,37.90
2019-01-30T17:17:23.964Z,38.79
2019-01-30T17:18:24.318Z,40.40
2019-01-30T17:19:23.941Z,39.00
2019-01-30T17:20:23.929Z,39.50
2019-01-30T17:21:23.921Z,40.09
2019-01-30T17:22:23.909Z,40.40
2019-01-30T17:23:23.899Z,38.79
2019-01-30T17:24:23.899Z,38.50
2019-01-30T17:25:23.878Z,39.59
2019-01-30T17:26:23.864Z,40.59
2019-01-30T17:27:23.852Z,42.29
2019-01-30T17:28:23.843Z,42.00
2019-01-30T17:29:23.834Z,43.90
2019-01-30T17:30:23.821Z,44.50
2019-01-30T17:31:23.810Z,44.79
2019-01-30T17:32:23.805Z,44.79
2019-01-30T17:33:23.791Z,46.09
2019-01-30T17:34:23.779Z,45.59
2019-01-30T17:35:23.768Z,46.79
2019-01-30T17:36:23.757Z,45.29
2019-01-30T17:37:23.749Z,48.00
2019-01-30T17:38:25.296Z,52.09
2019-01-30T17:39:23.724Z,48.79
2019-01-30T17:40:23.713Z,48.00
2019-01-30T17:41:23.704Z,48.70
2019-01-30T17:42:23.693Z,46.90
2019-01-30T17:43:23.684Z,48.00
2019-01-30T17:44:23.671Z,44.40
2019-01-30T17:45:23.662Z,47.59
2019-01-30T17:46:23.651Z,47.20
2019-01-30T17:47:23.641Z,48.50
2019-01-30T17:48:23.626Z,46.50
2019-01-30T17:49:23.617Z,46.40
2019-01-30T17:50:23.606Z,50.50
2019-01-30T17:51:23.594Z,50.90
2019-01-30T17:52:23.585Z,49.40
2019-01-30T17:53:23.574Z,51.40
2019-01-30T17:54:23.562Z,52.90
2019-01-30T17:55:26.000Z,49.29
2019-01-30T17:56:23.542Z,53.29
2019-01-30T17:57:23.531Z,49.59
2019-01-30T17:58:23.519Z,49.70
2019-01-30T17:59:23.509Z,49.90
2019-01-30T18:00:23.500Z,50.90
2019-01-30T18:01:23.488Z,48.40
2019-01-30T18:02:23.478Z,48.70
2019-01-30T18:03:23.465Z,51.09
2019-01-30T18:04:23.456Z,52.70
2019-01-30T18:05:23.444Z,52.00
2019-01-30T18:06:29.985Z,50.79
2019-01-30T18:07:44.471Z,41.00
2019-01-30T18:08:44.460Z,45.70
2019-01-30T18:09:44.448Z,47.09
2019-01-30T18:10:44.440Z,49.20
2019-01-30T18:11:44.429Z,47.79
2019-01-30T18:12:44.418Z,47.50
2019-01-30T18:13:45.246Z,47.09
2019-01-30T18:14:44.396Z,49.40
2019-01-30T18:15:44.386Z,48.50
2019-01-30T18:16:44.377Z,43.50
2019-01-30T18:17:44.363Z,41.50
2019-01-30T18:18:44.351Z,46.59
2019-01-30T18:19:44.340Z,49.59
2019-01-30T18:20:44.330Z,49.40
2019-01-30T18:21:44.319Z,51.79
2019-01-30T18:22:44.694Z,49.29
2019-01-30T18:23:44.297Z,47.70
2019-01-30T18:24:44.288Z,48.40
2019-01-30T18:25:44.277Z,50.90
2019-01-30T18:26:44.263Z,47.40
2019-01-30T18:27:44.255Z,44.79
2019-01-30T18:28:44.243Z,46.59
2019-01-30T18:29:44.231Z,46.70
2019-01-30T18:30:44.222Z,49.40
2019-01-30T18:31:44.210Z,50.29
2019-01-30T18:32:44.209Z,50.20
2019-01-30T18:33:44.194Z,49.40
2019-01-30T18:34:44.178Z,48.20
2019-01-30T18:35:44.165Z,49.00
2019-01-30T18:36:44.155Z,47.90
2019-01-30T18:37:44.156Z,46.70
2019-01-30T18:38:44.132Z,48.79
2019-01-30T18:39:44.120Z,45.20
2019-01-30T18:40:44.114Z,45.70
2019-01-30T18:41:44.101Z,43.20
2019-01-30T18:42:44.093Z,43.20
2019-01-30T18:43:45.509Z,40.29
2019-01-30T18:44:44.067Z,41.59
2019-01-30T18:45:44.056Z,43.29
2019-01-30T18:46:44.045Z,43.70
2019-01-30T18:47:44.034Z,42.09
2019-01-30T18:48:44.026Z,43.90
2019-01-30T18:49:44.014Z,48.09
2019-01-30T18:50:45.858Z,48.50
2019-01-30T18:51:43.992Z,49.00
2019-01-30T18:52:43.981Z,50.00
2019-01-30T18:53:43.967Z,49.79
2019-01-30T18:54:43.960Z,50.90
2019-01-30T18:55:43.947Z,49.79
2019-01-30T18:56:43.937Z,50.09
2019-01-30T18:57:43.927Z,49.40
2019-01-30T18:58:43.916Z,48.59
2019-01-30T18:59:43.904Z,46.59
2019-01-30T19:00:43.893Z,45.59
2019-01-30T19:01:43.885Z,47.20
2019-01-30T19:02:43.871Z,45.50
2019-01-30T19:03:43.860Z,45.50
2019-01-30T19:04:43.853Z,44.70
2019-01-30T19:05:43.838Z,44.00
2019-01-30T19:06:52.115Z,42.20
2019-01-30T19:08:04.865Z,38.00
2019-01-30T19:09:04.854Z,39.90
2019-01-30T19:10:04.857Z,38.50
2019-01-30T19:11:04.832Z,40.70
2019-01-30T19:12:04.821Z,41.50
2019-01-30T19:13:04.812Z,42.20
2019-01-30T19:14:04.804Z,41.50
2019-01-30T19:15:04.797Z,43.79
2019-01-30T19:16:04.777Z,44.90
2019-01-30T19:17:04.772Z,42.90
2019-01-30T19:18:04.757Z,41.20
2019-01-30T19:19:04.744Z,42.09
2019-01-30T19:20:04.732Z,41.90
2019-01-30T19:21:04.724Z,42.40
2019-01-30T19:22:04.713Z,40.20
2019-01-30T19:23:06.829Z,38.29
2019-01-30T19:24:04.693Z,37.29
2019-01-30T19:25:04.682Z,39.59
2019-01-30T19:26:04.671Z,37.29
2019-01-30T19:27:04.665Z,39.29
2019-01-30T19:28:04.648Z,40.40
2019-01-30T19:29:04.638Z,40.79
2019-01-30T19:30:04.668Z,40.20
2019-01-30T19:31:04.616Z,40.70
2019-01-30T19:32:04.605Z,41.09
2019-01-30T19:33:04.688Z,39.00
2019-01-30T19:34:04.585Z,38.90
2019-01-30T19:35:04.578Z,38.00
2019-01-30T19:36:04.565Z,38.59
2019-01-30T19:37:04.552Z,38.29
2019-01-30T19:38:04.544Z,39.79
2019-01-30T19:39:04.532Z,38.59
2019-01-30T19:40:04.533Z,41.09
2019-01-30T19:41:04.510Z,40.40
2019-01-30T19:42:04.499Z,41.50
2019-01-30T19:43:04.490Z,40.79
2019-01-30T19:44:04.476Z,37.20
2019-01-30T19:45:04.473Z,35.79
2019-01-30T19:46:04.455Z,36.70
2019-01-30T19:47:04.444Z,37.00
2019-01-30T19:48:04.434Z,39.29
2019-01-30T19:49:04.428Z,38.40
2019-01-30T19:50:04.415Z,43.40
2019-01-30T19:51:04.443Z,40.09
2019-01-30T19:52:04.391Z,39.90
2019-01-30T19:53:05.538Z,40.09
2019-01-30T19:54:04.366Z,40.70
2019-01-30T19:55:04.362Z,37.09
2019-01-30T19:56:04.347Z,34.20
2019-01-30T19:57:04.337Z,35.40
2019-01-30T19:58:04.326Z,37.00
2019-01-30T19:59:04.321Z,37.59
2019-01-30T20:00:04.305Z,39.79
2019-01-30T20:01:04.293Z,34.70
2019-01-30T20:02:04.285Z,34.29
2019-01-30T20:03:04.273Z,34.79
2019-01-30T20:04:04.266Z,33.90
2019-01-30T20:05:04.252Z,28.79
2019-01-30T20:06:04.241Z,28.10
2019-01-30T20:07:14.257Z,29.70
2019-01-30T20:08:25.271Z,24.79
2019-01-30T20:09:25.258Z,25.89
2019-01-30T20:10:25.245Z,26.39
2019-01-30T20:11:25.235Z,30.70
2019-01-30T20:12:25.224Z,29.89
2019-01-30T20:13:25.215Z,31.00
2019-01-30T20:14:25.204Z,31.00
2019-01-30T20:15:25.194Z,23.50
2019-01-30T20:16:25.181Z,24.29
2019-01-30T20:17:25.173Z,22.89
2019-01-30T20:18:25.160Z,21.29
2019-01-30T20:19:25.150Z,23.70
2019-01-30T20:20:25.139Z,25.60
2019-01-30T20:21:25.130Z,25.79
2019-01-30T20:22:25.117Z,27.60
2019-01-30T20:23:25.106Z,28.00
2019-01-30T20:24:25.097Z,25.50
2019-01-30T20:25:25.087Z,21.70
2019-01-30T20:26:25.076Z,24.60
2019-01-30T20:27:25.067Z,21.20
2019-01-30T20:28:25.055Z,21.39
2019-01-30T20:29:25.042Z,21.20
2019-01-30T20:30:25.031Z,19.79
2019-01-30T20:31:25.022Z,20.50
2019-01-30T20:32:25.013Z,19.10
2019-01-30T20:33:25.003Z,14.39
2019-01-30T20:34:24.990Z,17.70
2019-01-30T20:35:24.980Z,16.39
2019-01-30T20:36:24.968Z,14.50
2019-01-30T20:37:26.417Z,15.00
2019-01-30T20:38:24.947Z,17.20
2019-01-30T20:39:24.987Z,18.50
2019-01-30T20:40:24.929Z,20.20
2019-01-30T20:41:24.916Z,16.50
2019-01-30T20:42:24.905Z,15.19
2019-01-30T20:43:24.893Z,12.19
2019-01-30T20:44:24.883Z,14.30
2019-01-30T20:45:33.623Z,15.80
2019-01-30T20:46:45.912Z,18.20
2019-01-30T20:47:45.898Z,18.20
2019-01-30T20:48:51.364Z,17.50
2019-01-30T20:49:45.878Z,17.20
2019-01-30T20:50:45.870Z,16.10
2019-01-30T20:51:45.859Z,15.69
2019-01-30T20:52:45.846Z,15.50
2019-01-30T20:53:45.836Z,15.19
2019-01-30T20:54:45.824Z,18.60
2019-01-30T20:55:45.816Z,17.70
2019-01-30T20:56:45.806Z,16.29
2019-01-30T20:57:45.792Z,13.39
2019-01-30T20:58:45.780Z,14.39
2019-01-30T20:59:45.773Z,15.19
2019-01-30T21:00:45.759Z,16.10
2019-01-30T21:01:45.750Z,15.30
2019-01-30T21:02:45.738Z,16.89
2019-01-30T21:03:45.730Z,15.69
2019-01-30T21:04:45.721Z,16.50
2019-01-30T21:05:45.810Z,16.29
2019-01-30T21:06:45.697Z,17.20
2019-01-30T21:07:45.684Z,14.10
2019-01-30T21:08:45.673Z,15.10
2019-01-30T21:09:45.663Z,15.39
2019-01-30T21:10:45.654Z,14.89
2019-01-30T21:11:45.647Z,14.80
2019-01-30T21:12:45.632Z,13.19
2019-01-30T21:13:45.623Z,12.60
2019-01-30T21:14:45.611Z,13.19
2019-01-30T21:15:45.601Z,13.10
2019-01-30T21:16:45.587Z,14.39
2019-01-30T21:17:45.578Z,14.69
2019-01-30T21:18:45.566Z,15.00
2019-01-30T21:19:45.558Z,14.50
2019-01-30T21:20:45.548Z,13.60
2019-01-30T21:21:45.536Z,12.00
2019-01-30T21:22:45.525Z,11.69
2019-01-30T21:23:45.515Z,11.39
2019-01-30T21:24:45.539Z,12.60
2019-01-30T21:25:45.492Z,13.00
2019-01-30T21:26:45.482Z,12.30
2019-01-30T21:27:45.475Z,12.39
2019-01-30T21:28:45.462Z,13.10
2019-01-30T21:29:45.452Z,12.50
2019-01-30T21:30:45.442Z,12.00
2019-01-30T21:31:45.443Z,12.00
2019-01-30T21:32:45.432Z,11.39
2019-01-30T21:33:45.410Z,11.30
2019-01-30T21:34:45.396Z,9.10
2019-01-30T21:35:45.388Z,11.19
2019-01-30T21:36:45.377Z,13.10
2019-01-30T21:37:49.186Z,13.60
2019-01-30T21:38:45.353Z,11.10
2019-01-30T21:39:45.345Z,10.60
2019-01-30T21:40:45.334Z,10.50
2019-01-30T21:41:45.323Z,11.80
2019-01-30T21:42:45.310Z,10.60
2019-01-30T21:43:45.304Z,10.30
2019-01-30T21:44:45.288Z,11.69
2019-01-30T21:45:45.282Z,12.10
2019-01-30T21:46:45.269Z,11.60
2019-01-30T21:47:45.258Z,11.00
2019-01-30T21:48:45.247Z,7.90
2019-01-30T21:49:45.235Z,9.10
2019-01-30T21:50:45.226Z,9.69
2019-01-30T21:51:45.214Z,10.69
2019-01-30T21:52:45.204Z,9.69
2019-01-30T21:53:45.192Z,7.40
2019-01-30T21:54:45.181Z,7.30
2019-01-30T21:55:45.172Z,8.60
2019-01-30T21:56:45.161Z,9.30
2019-01-30T21:57:45.150Z,9.89
2019-01-30T21:58:45.138Z,9.19
2019-01-30T21:59:45.137Z,9.10
2019-01-30T22:00:45.181Z,8.30
2019-01-30T22:01:45.114Z,9.19
2019-01-30T22:02:45.118Z,8.39
2019-01-30T22:03:45.088Z,8.19
2019-01-30T22:04:45.078Z,7.69
2019-01-30T22:05:45.078Z,8.50
2019-01-30T22:06:45.055Z,8.50
2019-01-30T22:07:45.043Z,8.10
2019-01-30T22:08:45.031Z,6.80
2019-01-30T22:09:45.027Z,7.80
2019-01-30T22:10:45.011Z,7.09
2019-01-30T22:11:45.000Z,8.19
2019-01-30T22:12:44.989Z,7.59
2019-01-30T22:13:44.981Z,7.50
2019-01-30T22:14:44.975Z,7.40
2019-01-30T22:15:44.956Z,6.30
2019-01-30T22:16:44.946Z,7.40
2019-01-30T22:17:44.938Z,5.80
2019-01-30T22:18:44.925Z,7.19
2019-01-30T22:19:44.916Z,7.40
2019-01-30T22:20:44.905Z,8.10
2019-01-30T22:21:44.893Z,8.10
2019-01-30T22:22:44.884Z,7.69
2019-01-30T22:23:44.871Z,8.69
2019-01-30T22:24:44.860Z,7.30
2019-01-30T22:25:44.852Z,7.50
2019-01-30T22:26:44.839Z,7.40
2019-01-30T22:27:44.828Z,7.80
2019-01-30T22:28:44.819Z,8.19
2019-01-30T22:29:44.809Z,8.39
2019-01-30T22:30:44.796Z,8.60
2019-01-30T22:31:44.786Z,8.69
2019-01-30T22:32:44.776Z,8.30
2019-01-30T22:33:44.766Z,8.10
2019-01-30T22:34:44.803Z,7.69
2019-01-30T22:35:44.743Z,6.40
2019-01-30T22:36:44.731Z,7.40
2019-01-30T22:37:44.721Z,8.19
2019-01-30T22:38:44.710Z,8.30
2019-01-30T22:39:44.701Z,8.69
2019-01-30T22:40:44.687Z,8.39
2019-01-30T22:41:44.677Z,7.69
2019-01-30T22:42:44.668Z,7.69
2019-01-30T22:43:44.659Z,7.69
2019-01-30T22:44:44.648Z,7.80
2019-01-30T22:45:44.635Z,7.90
2019-01-30T22:46:44.625Z,8.39
2019-01-30T22:47:44.619Z,9.19
2019-01-30T22:48:44.601Z,8.30
2019-01-30T22:49:44.592Z,7.80
2019-01-30T22:50:44.580Z,7.80
2019-01-30T22:51:44.569Z,7.80
2019-01-30T22:52:44.559Z,7.40
2019-01-30T22:53:44.548Z,6.30
2019-01-30T22:54:44.535Z,7.09
2019-01-30T22:55:44.525Z,7.00
2019-01-30T22:56:44.515Z,7.09
2019-01-30T22:57:44.503Z,7.00
2019-01-30T22:58:44.492Z,7.09
2019-01-30T22:59:44.481Z,7.50
2019-01-30T23:00:44.473Z,7.00
2019-01-30T23:01:44.465Z,4.09
2019-01-30T23:02:44.460Z,5.00
2019-01-30T23:03:44.492Z,6.00
2019-01-30T23:04:44.432Z,6.19
2019-01-30T23:05:44.417Z,6.40
2019-01-30T23:06:44.407Z,5.40
2019-01-30T23:07:44.395Z,5.69
2019-01-30T23:08:44.384Z,5.90
2019-01-30T23:09:44.372Z,5.40
2019-01-30T23:10:44.364Z,6.19
2019-01-30T23:11:44.354Z,6.00
2019-01-30T23:12:44.351Z,6.30
2019-01-30T23:13:44.330Z,5.80
2019-01-30T23:14:44.320Z,5.30
2019-01-30T23:15:44.313Z,5.90
2019-01-30T23:16:44.296Z,5.69
2019-01-30T23:17:44.291Z,5.80
2019-01-30T23:18:44.280Z,6.00
2019-01-30T23:19:44.269Z,6.40
2019-01-30T23:20:44.255Z,6.09
2019-01-30T23:21:44.242Z,6.19
2019-01-30T23:22:44.242Z,6.30
2019-01-30T23:23:44.225Z,6.19
2019-01-30T23:24:44.211Z,6.80
2019-01-30T23:25:44.203Z,5.90
2019-01-30T23:26:44.191Z,5.50
2019-01-30T23:27:44.177Z,6.00
2019-01-30T23:28:44.167Z,5.50
2019-01-30T23:29:44.156Z,5.30
2019-01-30T23:30:44.145Z,5.59
2019-01-30T23:31:44.136Z,5.59
2019-01-30T23:32:44.124Z,6.19
2019-01-30T23:33:44.111Z,6.00
2019-01-30T23:34:44.103Z,5.90
2019-01-30T23:35:44.089Z,6.40
2019-01-30T23:36:44.081Z,6.80
2019-01-30T23:37:44.072Z,6.40
2019-01-30T23:38:44.059Z,6.59
2019-01-30T23:39:44.049Z,6.50
2019-01-30T23:40:44.036Z,6.40
2019-01-30T23:41:44.027Z,6.40
2019-01-30T23:42:44.018Z,5.80
2019-01-30T23:43:44.004Z,5.50
2019-01-30T23:44:43.993Z,6.09
2019-01-30T23:45:43.986Z,5.69
2019-01-30T23:46:43.976Z,5.40
2019-01-30T23:47:43.962Z,4.09
2019-01-30T23:48:43.948Z,4.50
2019-01-30T23:49:43.945Z,5.59
2019-01-30T23:50:43.929Z,5.80
2019-01-30T23:51:43.915Z,6.19
2019-01-30T23:52:43.908Z,6.09
2019-01-30T23:53:43.896Z,6.40
2019-01-30T23:54:43.883Z,5.90
2019-01-30T23:55:43.872Z,5.59
2019-01-30T23:56:43.863Z,4.80
2019-01-30T23:57:43.854Z,4.90
2019-01-30T23:58:43.841Z,4.80
2019-01-30T23:59:43.830Z,4.90
